sensor_id;sensor_type;location;lat;lon;timestamp;pressure;altitude;pressure_sealevel;temperature;humidity
37291;BME280;23175;-33.706;151.094;2022-07-29T00:01:17;100641.14;;;7.40;37.04
37291;BME280;23175;-33.706;151.094;2022-07-29T00:03:47;100637.55;;;7.06;37.51
37291;BME280;23175;-33.706;151.094;2022-07-29T00:06:17;100639.12;;;12.22;31.71
37291;BME280;23175;-33.706;151.094;2022-07-29T00:08:48;100634.31;;;11.48;32.03
37291;BME280;23175;-33.706;151.094;2022-07-29T00:11:17;100641.01;;;9.52;34.11
37291;BME280;23175;-33.706;151.094;2022-07-29T00:13:48;100637.42;;;8.93;35.42
37291;BME280;23175;-33.706;151.094;2022-07-29T00:16:18;100646.78;;;7.85;36.91
37291;BME280;23175;-33.706;151.094;2022-07-29T00:18:48;100650.08;;;9.16;36.06
37291;BME280;23175;-33.706;151.094;2022-07-29T00:21:19;100644.67;;;10.42;34.74
37291;BME280;23175;-33.706;151.094;2022-07-29T00:23:49;100643.19;;;9.13;35.72
37291;BME280;23175;-33.706;151.094;2022-07-29T00:26:19;100649.27;;;10.38;35.02
37291;BME280;23175;-33.706;151.094;2022-07-29T00:28:50;100646.46;;;9.85;34.57
37291;BME280;23175;-33.706;151.094;2022-07-29T00:31:20;100641.62;;;8.61;35.88
37291;BME280;23175;-33.706;151.094;2022-07-29T00:33:51;100644.48;;;8.89;34.72
37291;BME280;23175;-33.706;151.094;2022-07-29T00:36:21;100640.98;;;9.72;33.65
37291;BME280;23175;-33.706;151.094;2022-07-29T00:38:52;100635.87;;;9.49;33.70
37291;BME280;23175;-33.706;151.094;2022-07-29T00:41:22;100632.05;;;10.49;33.92
37291;BME280;23175;-33.706;151.094;2022-07-29T00:43:53;100627.59;;;10.83;33.44
37291;BME280;23175;-33.706;151.094;2022-07-29T00:46:23;100622.28;;;10.13;34.22
37291;BME280;23175;-33.706;151.094;2022-07-29T00:48:53;100625.65;;;7.52;36.69
37291;BME280;23175;-33.706;151.094;2022-07-29T00:51:23;100618.50;;;8.31;36.06
37291;BME280;23175;-33.706;151.094;2022-07-29T00:53:54;100612.57;;;11.47;32.43
37291;BME280;23175;-33.706;151.094;2022-07-29T00:56:24;100616.36;;;9.89;33.53
37291;BME280;23175;-33.706;151.094;2022-07-29T00:58:55;100618.62;;;9.47;34.13
37291;BME280;23175;-33.706;151.094;2022-07-29T01:01:26;100609.22;;;9.85;32.58
37291;BME280;23175;-33.706;151.094;2022-07-29T01:03:57;100602.61;;;10.57;31.34
37291;BME280;23175;-33.706;151.094;2022-07-29T01:06:27;100604.78;;;11.70;31.03
37291;BME280;23175;-33.706;151.094;2022-07-29T01:08:59;100604.42;;;9.79;30.90
37291;BME280;23175;-33.706;151.094;2022-07-29T01:11:29;100604.03;;;7.86;33.65
37291;BME280;23175;-33.706;151.094;2022-07-29T01:14:00;100598.95;;;9.96;32.27
37291;BME280;23175;-33.706;151.094;2022-07-29T01:16:32;100595.62;;;12.85;30.35
37291;BME280;23175;-33.706;151.094;2022-07-29T01:19:12;100596.70;;;8.89;34.08
37291;BME280;23175;-33.706;151.094;2022-07-29T01:21:51;100591.98;;;9.90;32.42
37291;BME280;23175;-33.706;151.094;2022-07-29T01:24:42;100587.67;;;10.55;32.80
37291;BME280;23175;-33.706;151.094;2022-07-29T01:27:32;100583.88;;;10.06;33.49
37291;BME280;23175;-33.706;151.094;2022-07-29T01:30:08;100582.58;;;10.41;32.14
37291;BME280;23175;-33.706;151.094;2022-07-29T01:32:40;100586.88;;;9.13;33.63
37291;BME280;23175;-33.706;151.094;2022-07-29T01:35:19;100581.51;;;9.42;34.25
37291;BME280;23175;-33.706;151.094;2022-07-29T01:37:56;100586.37;;;9.97;33.71
37291;BME280;23175;-33.706;151.094;2022-07-29T01:40:34;100582.67;;;9.74;34.41
37291;BME280;23175;-33.706;151.094;2022-07-29T01:43:12;100578.56;;;11.64;32.09
37291;BME280;23175;-33.706;151.094;2022-07-29T01:45:48;100571.87;;;10.38;32.41
37291;BME280;23175;-33.706;151.094;2022-07-29T01:48:23;100567.86;;;10.19;33.15
37291;BME280;23175;-33.706;151.094;2022-07-29T01:50:58;100574.06;;;11.48;32.40
37291;BME280;23175;-33.706;151.094;2022-07-29T01:53:34;100570.70;;;10.25;33.63
37291;BME280;23175;-33.706;151.094;2022-07-29T01:56:06;100573.42;;;10.38;34.10
37291;BME280;23175;-33.706;151.094;2022-07-29T01:58:41;100563.45;;;10.76;33.26
37291;BME280;23175;-33.706;151.094;2022-07-29T02:01:12;100559.36;;;10.76;32.83
37291;BME280;23175;-33.706;151.094;2022-07-29T02:03:45;100552.67;;;10.55;32.82
37291;BME280;23175;-33.706;151.094;2022-07-29T02:06:19;100543.90;;;13.02;30.18
37291;BME280;23175;-33.706;151.094;2022-07-29T02:08:53;100542.33;;;13.18;29.60
37291;BME280;23175;-33.706;151.094;2022-07-29T02:11:26;100538.25;;;14.73;28.63
37291;BME280;23175;-33.706;151.094;2022-07-29T02:13:57;100544.23;;;11.63;31.43
37291;BME280;23175;-33.706;151.094;2022-07-29T02:16:31;100541.09;;;13.41;29.55
37291;BME280;23175;-33.706;151.094;2022-07-29T02:19:04;100534.43;;;10.79;30.86
37291;BME280;23175;-33.706;151.094;2022-07-29T02:21:35;100527.60;;;14.23;28.31
37291;BME280;23175;-33.706;151.094;2022-07-29T02:24:06;100521.86;;;13.50;29.08
37291;BME280;23175;-33.706;151.094;2022-07-29T02:26:40;100521.71;;;10.29;31.38
37291;BME280;23175;-33.706;151.094;2022-07-29T02:29:12;100520.80;;;10.42;32.03
37291;BME280;23175;-33.706;151.094;2022-07-29T02:31:45;100517.24;;;11.51;31.82
37291;BME280;23175;-33.706;151.094;2022-07-29T02:34:16;100512.30;;;8.85;32.04
37291;BME280;23175;-33.706;151.094;2022-07-29T02:36:47;100517.14;;;10.06;31.57
37291;BME280;23175;-33.706;151.094;2022-07-29T02:39:18;100512.92;;;9.44;32.38
37291;BME280;23175;-33.706;151.094;2022-07-29T02:41:53;100512.58;;;9.62;33.00
37291;BME280;23175;-33.706;151.094;2022-07-29T02:44:26;100508.75;;;10.09;31.83
37291;BME280;23175;-33.706;151.094;2022-07-29T02:47:02;100509.54;;;10.34;32.24
37291;BME280;23175;-33.706;151.094;2022-07-29T02:49:37;100505.33;;;11.20;31.74
37291;BME280;23175;-33.706;151.094;2022-07-29T02:52:12;100503.34;;;8.95;31.98
37291;BME280;23175;-33.706;151.094;2022-07-29T02:54:50;100502.30;;;10.37;31.32
37291;BME280;23175;-33.706;151.094;2022-07-29T02:57:26;100499.29;;;9.71;31.58
37291;BME280;23175;-33.706;151.094;2022-07-29T03:00:01;100497.85;;;10.41;31.27
37291;BME280;23175;-33.706;151.094;2022-07-29T03:02:36;100496.58;;;11.18;30.73
37291;BME280;23175;-33.706;151.094;2022-07-29T03:05:09;100484.59;;;12.10;29.66
37291;BME280;23175;-33.706;151.094;2022-07-29T03:07:42;100483.08;;;11.03;30.29
37291;BME280;23175;-33.706;151.094;2022-07-29T03:10:14;100471.20;;;10.27;30.15
37291;BME280;23175;-33.706;151.094;2022-07-29T03:12:44;100481.21;;;10.46;30.28
37291;BME280;23175;-33.706;151.094;2022-07-29T03:15:15;100468.18;;;12.39;27.12
37291;BME280;23175;-33.706;151.094;2022-07-29T03:17:45;100472.99;;;10.88;30.36
37291;BME280;23175;-33.706;151.094;2022-07-29T03:20:15;100476.02;;;9.27;31.24
37291;BME280;23175;-33.706;151.094;2022-07-29T03:22:47;100478.98;;;10.64;31.16
37291;BME280;23175;-33.706;151.094;2022-07-29T03:25:19;100467.52;;;9.34;30.78
37291;BME280;23175;-33.706;151.094;2022-07-29T03:27:51;100466.13;;;10.70;30.44
37291;BME280;23175;-33.706;151.094;2022-07-29T03:30:21;100466.59;;;11.23;29.66
37291;BME280;23175;-33.706;151.094;2022-07-29T03:32:52;100462.41;;;13.06;28.52
37291;BME280;23175;-33.706;151.094;2022-07-29T03:35:23;100465.00;;;11.15;30.18
37291;BME280;23175;-33.706;151.094;2022-07-29T03:37:53;100461.51;;;13.42;28.35
37291;BME280;23175;-33.706;151.094;2022-07-29T03:40:30;100468.14;;;11.56;29.60
37291;BME280;23175;-33.706;151.094;2022-07-29T03:43:02;100462.31;;;10.24;27.87
37291;BME280;23175;-33.706;151.094;2022-07-29T03:45:34;100469.35;;;9.21;31.09
37291;BME280;23175;-33.706;151.094;2022-07-29T03:48:08;100472.42;;;11.21;28.50
37291;BME280;23175;-33.706;151.094;2022-07-29T03:50:40;100469.77;;;8.67;30.76
37291;BME280;23175;-33.706;151.094;2022-07-29T03:53:10;100467.66;;;8.67;30.74
37291;BME280;23175;-33.706;151.094;2022-07-29T03:55:43;100460.66;;;11.18;28.49
37291;BME280;23175;-33.706;151.094;2022-07-29T03:58:15;100458.86;;;9.65;30.64
37291;BME280;23175;-33.706;151.094;2022-07-29T04:00:46;100459.28;;;11.70;29.88
37291;BME280;23175;-33.706;151.094;2022-07-29T04:03:17;100463.81;;;9.78;31.39
37291;BME280;23175;-33.706;151.094;2022-07-29T04:05:59;100456.31;;;10.95;29.55
37291;BME280;23175;-33.706;151.094;2022-07-29T04:08:31;100453.06;;;13.15;26.00
37291;BME280;23175;-33.706;151.094;2022-07-29T04:11:03;100453.02;;;13.43;26.36
37291;BME280;23175;-33.706;151.094;2022-07-29T04:13:33;100448.42;;;11.89;26.05
37291;BME280;23175;-33.706;151.094;2022-07-29T04:16:04;100450.47;;;12.26;25.06
37291;BME280;23175;-33.706;151.094;2022-07-29T04:18:34;100453.54;;;11.26;23.70
37291;BME280;23175;-33.706;151.094;2022-07-29T04:21:04;100464.58;;;11.06;24.89
37291;BME280;23175;-33.706;151.094;2022-07-29T04:23:35;100459.94;;;12.54;22.78
37291;BME280;23175;-33.706;151.094;2022-07-29T04:26:05;100458.39;;;9.70;24.59
37291;BME280;23175;-33.706;151.094;2022-07-29T04:28:35;100456.91;;;11.46;22.83
37291;BME280;23175;-33.706;151.094;2022-07-29T04:31:05;100466.73;;;10.71;22.88
37291;BME280;23175;-33.706;151.094;2022-07-29T04:33:35;100463.57;;;9.65;26.51
37291;BME280;23175;-33.706;151.094;2022-07-29T04:36:05;100470.81;;;11.89;25.77
37291;BME280;23175;-33.706;151.094;2022-07-29T04:38:36;100471.26;;;12.12;26.00
37291;BME280;23175;-33.706;151.094;2022-07-29T04:41:06;100474.49;;;9.84;28.50
37291;BME280;23175;-33.706;151.094;2022-07-29T04:43:36;100471.77;;;9.87;28.85
37291;BME280;23175;-33.706;151.094;2022-07-29T04:46:07;100471.38;;;10.76;27.73
37291;BME280;23175;-33.706;151.094;2022-07-29T04:48:38;100474.36;;;11.42;27.13
37291;BME280;23175;-33.706;151.094;2022-07-29T04:51:08;100482.85;;;12.27;26.63
37291;BME280;23175;-33.706;151.094;2022-07-29T04:53:38;100482.56;;;11.78;26.63
37291;BME280;23175;-33.706;151.094;2022-07-29T04:56:09;100485.16;;;11.62;26.82
37291;BME280;23175;-33.706;151.094;2022-07-29T04:58:39;100494.60;;;10.22;27.96
37291;BME280;23175;-33.706;151.094;2022-07-29T05:01:09;100492.50;;;12.43;26.68
37291;BME280;23175;-33.706;151.094;2022-07-29T05:03:39;100498.03;;;10.66;28.55
37291;BME280;23175;-33.706;151.094;2022-07-29T05:06:09;100500.05;;;10.74;28.44
37291;BME280;23175;-33.706;151.094;2022-07-29T05:08:40;100502.99;;;11.59;26.86
37291;BME280;23175;-33.706;151.094;2022-07-29T05:11:09;100500.22;;;10.55;27.80
37291;BME280;23175;-33.706;151.094;2022-07-29T05:13:40;100503.87;;;11.82;28.35
37291;BME280;23175;-33.706;151.094;2022-07-29T05:16:10;100502.43;;;12.04;26.88
37291;BME280;23175;-33.706;151.094;2022-07-29T05:18:40;100500.47;;;12.54;26.65
37291;BME280;23175;-33.706;151.094;2022-07-29T05:21:10;100504.61;;;10.96;28.39
37291;BME280;23175;-33.706;151.094;2022-07-29T05:23:41;100507.02;;;12.45;27.25
37291;BME280;23175;-33.706;151.094;2022-07-29T05:26:11;100509.12;;;12.58;27.20
37291;BME280;23175;-33.706;151.094;2022-07-29T05:28:41;100513.81;;;11.64;27.13
37291;BME280;23175;-33.706;151.094;2022-07-29T05:31:11;100515.43;;;11.43;27.39
37291;BME280;23175;-33.706;151.094;2022-07-29T05:33:42;100520.38;;;11.87;27.20
37291;BME280;23175;-33.706;151.094;2022-07-29T05:36:12;100517.28;;;12.94;26.26
37291;BME280;23175;-33.706;151.094;2022-07-29T05:38:42;100523.58;;;9.56;29.76
37291;BME280;23175;-33.706;151.094;2022-07-29T05:41:13;100527.03;;;11.21;28.37
37291;BME280;23175;-33.706;151.094;2022-07-29T05:43:43;100527.73;;;8.19;31.82
37291;BME280;23175;-33.706;151.094;2022-07-29T05:46:13;100535.10;;;10.66;29.97
37291;BME280;23175;-33.706;151.094;2022-07-29T05:48:43;100533.15;;;11.53;28.96
37291;BME280;23175;-33.706;151.094;2022-07-29T05:51:13;100540.92;;;10.43;30.66
37291;BME280;23175;-33.706;151.094;2022-07-29T05:53:43;100541.92;;;10.16;30.43
37291;BME280;23175;-33.706;151.094;2022-07-29T05:56:14;100545.27;;;10.49;30.75
37291;BME280;23175;-33.706;151.094;2022-07-29T05:58:44;100548.80;;;9.85;30.94
37291;BME280;23175;-33.706;151.094;2022-07-29T06:01:15;100556.06;;;9.79;31.12
37291;BME280;23175;-33.706;151.094;2022-07-29T06:03:45;100554.59;;;9.91;30.28
37291;BME280;23175;-33.706;151.094;2022-07-29T06:06:15;100555.83;;;10.88;30.23
37291;BME280;23175;-33.706;151.094;2022-07-29T06:08:46;100561.35;;;11.01;30.29
37291;BME280;23175;-33.706;151.094;2022-07-29T06:11:16;100560.98;;;9.03;31.44
37291;BME280;23175;-33.706;151.094;2022-07-29T06:13:46;100564.39;;;9.15;31.42
37291;BME280;23175;-33.706;151.094;2022-07-29T06:16:17;100566.79;;;8.99;32.63
37291;BME280;23175;-33.706;151.094;2022-07-29T06:18:47;100570.81;;;9.89;30.24
37291;BME280;23175;-33.706;151.094;2022-07-29T06:21:18;100572.64;;;10.89;29.43
37291;BME280;23175;-33.706;151.094;2022-07-29T06:23:48;100571.83;;;11.57;28.98
37291;BME280;23175;-33.706;151.094;2022-07-29T06:26:18;100578.73;;;8.92;31.76
37291;BME280;23175;-33.706;151.094;2022-07-29T06:28:49;100580.76;;;10.41;31.22
37291;BME280;23175;-33.706;151.094;2022-07-29T06:31:19;100581.28;;;11.50;29.67
37291;BME280;23175;-33.706;151.094;2022-07-29T06:33:50;100583.40;;;11.75;29.01
37291;BME280;23175;-33.706;151.094;2022-07-29T06:36:20;100589.18;;;9.59;31.33
37291;BME280;23175;-33.706;151.094;2022-07-29T06:38:51;100589.54;;;9.65;31.22
37291;BME280;23175;-33.706;151.094;2022-07-29T06:41:21;100591.48;;;10.03;31.47
37291;BME280;23175;-33.706;151.094;2022-07-29T06:43:51;100588.80;;;11.40;29.41
37291;BME280;23175;-33.706;151.094;2022-07-29T06:46:22;100596.90;;;9.89;31.61
37291;BME280;23175;-33.706;151.094;2022-07-29T06:48:52;100592.89;;;10.91;30.20
37291;BME280;23175;-33.706;151.094;2022-07-29T06:51:22;100594.90;;;11.07;30.35
37291;BME280;23175;-33.706;151.094;2022-07-29T06:53:53;100597.29;;;9.55;31.71
37291;BME280;23175;-33.706;151.094;2022-07-29T06:56:23;100606.11;;;9.87;31.99
37291;BME280;23175;-33.706;151.094;2022-07-29T06:58:53;100607.59;;;10.78;31.16
37291;BME280;23175;-33.706;151.094;2022-07-29T07:01:23;100609.19;;;10.27;32.45
37291;BME280;23175;-33.706;151.094;2022-07-29T07:03:53;100605.53;;;10.86;30.95
37291;BME280;23175;-33.706;151.094;2022-07-29T07:06:23;100607.15;;;10.80;31.64
37291;BME280;23175;-33.706;151.094;2022-07-29T07:08:54;100613.16;;;10.46;32.21
37291;BME280;23175;-33.706;151.094;2022-07-29T07:11:24;100613.28;;;11.00;31.28
37291;BME280;23175;-33.706;151.094;2022-07-29T07:13:54;100618.84;;;10.77;31.78
37291;BME280;23175;-33.706;151.094;2022-07-29T07:16:25;100626.07;;;10.95;31.96
37291;BME280;23175;-33.706;151.094;2022-07-29T07:18:55;100630.03;;;11.24;31.89
37291;BME280;23175;-33.706;151.094;2022-07-29T07:21:25;100629.52;;;10.34;33.48
37291;BME280;23175;-33.706;151.094;2022-07-29T07:24:02;100633.21;;;10.05;33.12
37291;BME280;23175;-33.706;151.094;2022-07-29T07:26:33;100632.19;;;12.62;31.41
37291;BME280;23175;-33.706;151.094;2022-07-29T07:29:03;100632.40;;;11.13;32.08
37291;BME280;23175;-33.706;151.094;2022-07-29T07:31:35;100630.88;;;13.13;29.77
37291;BME280;23175;-33.706;151.094;2022-07-29T07:34:05;100630.55;;;12.89;30.00
37291;BME280;23175;-33.706;151.094;2022-07-29T07:36:35;100636.32;;;11.22;31.30
37291;BME280;23175;-33.706;151.094;2022-07-29T07:39:05;100633.43;;;12.94;30.04
37291;BME280;23175;-33.706;151.094;2022-07-29T07:41:35;100637.76;;;13.43;29.60
37291;BME280;23175;-33.706;151.094;2022-07-29T07:44:06;100640.57;;;12.97;29.84
37291;BME280;23175;-33.706;151.094;2022-07-29T07:46:36;100642.23;;;13.64;29.74
37291;BME280;23175;-33.706;151.094;2022-07-29T07:49:06;100643.01;;;13.50;30.08
37291;BME280;23175;-33.706;151.094;2022-07-29T07:51:36;100644.01;;;13.08;30.69
37291;BME280;23175;-33.706;151.094;2022-07-29T07:54:07;100645.25;;;13.46;30.38
37291;BME280;23175;-33.706;151.094;2022-07-29T07:56:37;100649.72;;;13.40;30.32
37291;BME280;23175;-33.706;151.094;2022-07-29T07:59:07;100649.87;;;13.43;30.26
37291;BME280;23175;-33.706;151.094;2022-07-29T08:01:37;100647.33;;;13.20;30.82
37291;BME280;23175;-33.706;151.094;2022-07-29T08:04:08;100647.45;;;13.52;31.00
37291;BME280;23175;-33.706;151.094;2022-07-29T08:06:38;100647.72;;;13.19;31.05
37291;BME280;23175;-33.706;151.094;2022-07-29T08:09:07;100649.25;;;13.29;31.55
37291;BME280;23175;-33.706;151.094;2022-07-29T08:11:38;100655.50;;;12.87;31.81
37291;BME280;23175;-33.706;151.094;2022-07-29T08:14:08;100655.50;;;13.14;32.19
37291;BME280;23175;-33.706;151.094;2022-07-29T08:16:38;100657.91;;;12.81;32.25
37291;BME280;23175;-33.706;151.094;2022-07-29T08:19:09;100658.86;;;12.45;32.26
37291;BME280;23175;-33.706;151.094;2022-07-29T08:21:39;100663.84;;;12.60;32.87
37291;BME280;23175;-33.706;151.094;2022-07-29T08:24:10;100666.59;;;12.46;33.23
37291;BME280;23175;-33.706;151.094;2022-07-29T08:26:41;100673.04;;;12.56;33.02
37291;BME280;23175;-33.706;151.094;2022-07-29T08:29:11;100680.40;;;12.66;33.50
37291;BME280;23175;-33.706;151.094;2022-07-29T08:31:42;100679.05;;;12.57;33.64
37291;BME280;23175;-33.706;151.094;2022-07-29T08:34:12;100677.56;;;12.31;33.68
37291;BME280;23175;-33.706;151.094;2022-07-29T08:36:41;100679.89;;;12.59;33.35
37291;BME280;23175;-33.706;151.094;2022-07-29T08:39:11;100683.39;;;12.17;33.52
37291;BME280;23175;-33.706;151.094;2022-07-29T08:41:42;100686.59;;;12.12;33.66
37291;BME280;23175;-33.706;151.094;2022-07-29T08:44:12;100691.68;;;11.39;35.50
37291;BME280;23175;-33.706;151.094;2022-07-29T08:46:43;100699.54;;;11.98;34.82
37291;BME280;23175;-33.706;151.094;2022-07-29T08:49:12;100701.86;;;11.98;34.82
37291;BME280;23175;-33.706;151.094;2022-07-29T08:51:43;100704.78;;;11.98;34.68
37291;BME280;23175;-33.706;151.094;2022-07-29T08:54:18;100704.43;;;11.80;34.72
37291;BME280;23175;-33.706;151.094;2022-07-29T08:56:52;100709.08;;;11.77;34.47
37291;BME280;23175;-33.706;151.094;2022-07-29T08:59:25;100711.60;;;12.03;34.60
37291;BME280;23175;-33.706;151.094;2022-07-29T09:01:58;100715.17;;;11.98;34.71
37291;BME280;23175;-33.706;151.094;2022-07-29T09:04:32;100717.68;;;12.22;34.36
37291;BME280;23175;-33.706;151.094;2022-07-29T09:07:05;100716.24;;;11.77;34.83
37291;BME280;23175;-33.706;151.094;2022-07-29T09:09:35;100717.47;;;12.02;34.63
37291;BME280;23175;-33.706;151.094;2022-07-29T09:12:06;100723.46;;;11.61;35.40
37291;BME280;23175;-33.706;151.094;2022-07-29T09:14:36;100727.84;;;11.63;35.54
37291;BME280;23175;-33.706;151.094;2022-07-29T09:17:07;100730.15;;;11.83;35.36
37291;BME280;23175;-33.706;151.094;2022-07-29T09:19:37;100737.39;;;11.81;35.65
37291;BME280;23175;-33.706;151.094;2022-07-29T09:22:08;100738.74;;;11.95;35.67
37291;BME280;23175;-33.706;151.094;2022-07-29T09:24:41;100739.75;;;11.40;35.35
37291;BME280;23175;-33.706;151.094;2022-07-29T09:27:18;100743.83;;;11.40;35.18
37291;BME280;23175;-33.706;151.094;2022-07-29T09:29:56;100745.85;;;11.87;35.90
37291;BME280;23175;-33.706;151.094;2022-07-29T09:32:26;100755.09;;;11.28;35.64
37291;BME280;23175;-33.706;151.094;2022-07-29T09:35:30;100761.74;;;11.45;35.11
37291;BME280;23175;-33.706;151.094;2022-07-29T09:38:11;100767.74;;;11.49;35.45
37291;BME280;23175;-33.706;151.094;2022-07-29T09:40:41;100770.47;;;11.71;35.28
37291;BME280;23175;-33.706;151.094;2022-07-29T09:43:25;100778.56;;;11.30;35.59
37291;BME280;23175;-33.706;151.094;2022-07-29T09:45:55;100781.88;;;10.94;36.23
37291;BME280;23175;-33.706;151.094;2022-07-29T09:48:26;100785.63;;;10.91;36.39
37291;BME280;23175;-33.706;151.094;2022-07-29T09:50:56;100786.54;;;10.62;35.93
37291;BME280;23175;-33.706;151.094;2022-07-29T09:53:35;100790.84;;;11.22;35.76
37291;BME280;23175;-33.706;151.094;2022-07-29T09:56:06;100790.03;;;11.18;35.82
37291;BME280;23175;-33.706;151.094;2022-07-29T09:58:35;100795.54;;;11.39;36.04
37291;BME280;23175;-33.706;151.094;2022-07-29T10:01:05;100801.05;;;10.88;36.37
37291;BME280;23175;-33.706;151.094;2022-07-29T10:03:52;100805.37;;;10.52;36.96
37291;BME280;23175;-33.706;151.094;2022-07-29T10:06:22;100807.39;;;11.13;36.94
37291;BME280;23175;-33.706;151.094;2022-07-29T10:08:54;100811.10;;;10.55;36.84
37291;BME280;23175;-33.706;151.094;2022-07-29T10:11:23;100821.10;;;10.65;36.85
37291;BME280;23175;-33.706;151.094;2022-07-29T10:13:54;100826.80;;;10.90;36.99
37291;BME280;23175;-33.706;151.094;2022-07-29T10:16:25;100833.05;;;10.21;37.50
37291;BME280;23175;-33.706;151.094;2022-07-29T10:18:55;100831.82;;;10.60;37.16
37291;BME280;23175;-33.706;151.094;2022-07-29T10:21:25;100834.84;;;10.61;37.40
37291;BME280;23175;-33.706;151.094;2022-07-29T10:23:56;100836.44;;;10.57;37.38
37291;BME280;23175;-33.706;151.094;2022-07-29T10:26:26;100842.54;;;10.66;37.54
37291;BME280;23175;-33.706;151.094;2022-07-29T10:28:56;100844.75;;;10.43;37.54
37291;BME280;23175;-33.706;151.094;2022-07-29T10:31:33;100845.21;;;10.45;37.47
37291;BME280;23175;-33.706;151.094;2022-07-29T10:34:13;100843.83;;;10.57;37.70
37291;BME280;23175;-33.706;151.094;2022-07-29T10:36:54;100843.22;;;10.65;37.59
37291;BME280;23175;-33.706;151.094;2022-07-29T10:39:43;100850.24;;;10.15;38.82
37291;BME280;23175;-33.706;151.094;2022-07-29T10:42:19;100849.65;;;10.40;37.73
37291;BME280;23175;-33.706;151.094;2022-07-29T10:44:50;100851.19;;;10.40;37.63
37291;BME280;23175;-33.706;151.094;2022-07-29T10:47:23;100852.37;;;10.69;38.23
37291;BME280;23175;-33.706;151.094;2022-07-29T10:50:02;100847.73;;;10.69;38.17
37291;BME280;23175;-33.706;151.094;2022-07-29T10:53:06;100849.25;;;10.09;38.45
37291;BME280;23175;-33.706;151.094;2022-07-29T10:55:37;100850.67;;;10.79;38.12
37291;BME280;23175;-33.706;151.094;2022-07-29T10:58:17;100849.74;;;10.13;38.73
37291;BME280;23175;-33.706;151.094;2022-07-29T11:00:47;100854.36;;;10.34;38.33
37291;BME280;23175;-33.706;151.094;2022-07-29T11:03:51;100852.48;;;10.61;38.15
37291;BME280;23175;-33.706;151.094;2022-07-29T11:06:21;100857.81;;;10.81;38.02
37291;BME280;23175;-33.706;151.094;2022-07-29T11:09:16;100857.51;;;10.29;38.17
37291;BME280;23175;-33.706;151.094;2022-07-29T11:11:47;100860.47;;;9.34;39.06
37291;BME280;23175;-33.706;151.094;2022-07-29T11:14:17;100858.71;;;10.23;37.92
37291;BME280;23175;-33.706;151.094;2022-07-29T11:17:04;100857.62;;;10.75;38.12
37291;BME280;23175;-33.706;151.094;2022-07-29T11:19:35;100858.55;;;10.38;38.20
37291;BME280;23175;-33.706;151.094;2022-07-29T11:22:09;100863.44;;;10.16;37.94
37291;BME280;23175;-33.706;151.094;2022-07-29T11:24:40;100864.26;;;10.29;38.48
37291;BME280;23175;-33.706;151.094;2022-07-29T11:27:12;100860.36;;;10.48;38.14
37291;BME280;23175;-33.706;151.094;2022-07-29T11:29:53;100858.74;;;10.50;38.14
37291;BME280;23175;-33.706;151.094;2022-07-29T11:32:35;100862.37;;;9.92;38.82
37291;BME280;23175;-33.706;151.094;2022-07-29T11:35:16;100861.90;;;10.02;38.42
37291;BME280;23175;-33.706;151.094;2022-07-29T11:37:47;100866.06;;;9.96;38.60
37291;BME280;23175;-33.706;151.094;2022-07-29T11:41:23;100865.49;;;10.14;38.38
37291;BME280;23175;-33.706;151.094;2022-07-29T11:43:55;100867.36;;;10.28;38.32
37291;BME280;23175;-33.706;151.094;2022-07-29T11:46:58;100865.49;;;10.39;38.38
37291;BME280;23175;-33.706;151.094;2022-07-29T11:49:28;100871.03;;;10.25;38.48
37291;BME280;23175;-33.706;151.094;2022-07-29T11:51:59;100873.68;;;10.21;38.71
37291;BME280;23175;-33.706;151.094;2022-07-29T11:54:33;100873.45;;;10.00;38.80
37291;BME280;23175;-33.706;151.094;2022-07-29T11:57:04;100874.68;;;9.73;39.25
37291;BME280;23175;-33.706;151.094;2022-07-29T11:59:41;100872.30;;;9.37;40.09
37291;BME280;23175;-33.706;151.094;2022-07-29T12:02:12;100873.72;;;9.66;38.99
37291;BME280;23175;-33.706;151.094;2022-07-29T12:04:51;100876.82;;;9.82;38.89
37291;BME280;23175;-33.706;151.094;2022-07-29T12:07:27;100879.89;;;9.83;38.92
37291;BME280;23175;-33.706;151.094;2022-07-29T12:09:58;100880.96;;;9.40;39.40
37291;BME280;23175;-33.706;151.094;2022-07-29T12:12:28;100882.52;;;9.47;39.59
37291;BME280;23175;-33.706;151.094;2022-07-29T12:14:58;100884.11;;;9.10;41.05
37291;BME280;23175;-33.706;151.094;2022-07-29T12:17:40;100888.72;;;8.11;42.78
37291;BME280;23175;-33.706;151.094;2022-07-29T12:20:10;100891.77;;;9.09;41.79
37291;BME280;23175;-33.706;151.094;2022-07-29T12:22:41;100895.41;;;9.07;42.19
37291;BME280;23175;-33.706;151.094;2022-07-29T12:25:13;100904.29;;;9.21;40.99
37291;BME280;23175;-33.706;151.094;2022-07-29T12:27:43;100903.35;;;9.82;39.97
37291;BME280;23175;-33.706;151.094;2022-07-29T12:30:15;100906.57;;;9.67;39.96
37291;BME280;23175;-33.706;151.094;2022-07-29T12:32:47;100910.23;;;8.37;41.43
37291;BME280;23175;-33.706;151.094;2022-07-29T12:35:18;100906.69;;;9.75;39.85
37291;BME280;23175;-33.706;151.094;2022-07-29T12:37:50;100910.56;;;9.92;39.36
37291;BME280;23175;-33.706;151.094;2022-07-29T12:40:22;100910.87;;;9.84;39.31
37291;BME280;23175;-33.706;151.094;2022-07-29T12:43:09;100913.58;;;9.84;39.54
37291;BME280;23175;-33.706;151.094;2022-07-29T12:45:41;100913.09;;;9.55;39.82
37291;BME280;23175;-33.706;151.094;2022-07-29T12:48:12;100913.39;;;9.58;39.80
37291;BME280;23175;-33.706;151.094;2022-07-29T12:50:59;100915.55;;;9.76;39.57